Aviation Digital Data Service (ADDS)

Output produced by METARs form (0325 UTC 14 December 2018)
found at http://aviationweather.gov/metar/data/
 
KBWI 132344Z 1400/1506 08006KT P6SM BKN050 OVC150 
     FM140200 07004KT P6SM BKN050 
     FM141800 VRB03KT P6SM -RA OVC070 
     FM142300 03005KT 5SM -RA OVC030
       
KSBY 132320Z 1400/1424 12003KT P6SM BKN070 
     TEMPO 1407/1411 2SM BR 
     FM141500 12003KT P6SM BKN060 
     FM142100 15003KT 5SM -RA BR OVC035